Latest Coastal Weather Observations for Brisbane Airport

IDQ60701

Issued at 2:25 pm EST Saturday 2 August 2014 (issued every 10 minutes, with the page automatically refreshed every 10 minutes)

About coastal observations | Map of coastal stations | Coastal observations for QLD | Marine services | Other Formats
Station Details ID: 040842 Name: BRISBANE AERO Lat: -27.39 Lon: 153.13 Height: 4.51 m
Data from the previous 72 hours. | See also: Recent months at Brisbane Airport
Date/Time
EST
Temp

°C
Wind Pressure Rain
since 9am
mm
Weather Cloud Vis
km
Sea
Height
m
Swell
Dir
 
Speed
knots
Gust
knots
hPa Trend Height
m
Period
s
Dir
02/02:00pm 18.1 E 8 13 1022.0 - 0.0 - - 10 - - - -
02/01:30pm 18.5 ESE 7 11 1021.9 - 0.0 - - 10 - - - -
02/01:00pm 19.3 SSE 7 12 1021.8 - 0.0 - - 10 - - - -
02/12:30pm 19.2 S 7 11 1022.1 - 0.0 - - 10 - - - -
02/12:00pm 19.4 SW 7 11 1022.4 R 0.0 Fine Clear 40 - - - -
02/11:30am 18.3 SW 11 15 1022.6 - 0.0 - - 10 - - - -
02/11:00am 18.1 SW 11 16 1022.9 - 0.0 - - 10 - - - -
02/10:30am 17.0 SW 14 18 1023.1 - 0.0 - - 10 - - - -
02/10:00am 16.5 SW 14 18 1023.2 - 0.0 - - 10 - - - -
02/09:30am 15.8 SW 16 20 1023.2 - 0.0 - - 10 - - - -
02/09:00am 15.1 SW 18 24 1023.1 R 0.0 Smoke Mostly clear 30 - - - -
02/08:30am 14.5 SW 16 21 1022.8 - 0.0 - - 10 - - - -
02/08:00am 13.8 SW 16 20 1022.5 - 0.0 - - 10 - - - -
02/07:30am 13.1 SSW 15 19 1022.1 - 0.0 - - 10 - - - -
02/07:00am 12.5 SSW 14 18 1021.8 - 0.0 - - 10 - - - -
02/06:30am 12.2 SW 16 20 1021.1 - 0.0 - Mostly clear 10 - - - -
02/06:00am 12.8 WSW 14 17 1020.3 R 0.0 Fine Mostly clear 30 - - - -
02/05:30am 13.2 WSW 15 20 1019.7 - 0.0 - - 10 - - - -
02/05:00am 11.4 WSW 14 18 1019.1 - 0.0 - - 10 - - - -
02/04:30am 12.4 WSW 10 12 1018.8 - 0.0 - - 10 - - - -
02/04:00am 12.6 WSW 7 10 1018.5 - 0.0 - - 10 - - - -
02/03:30am 14.2 WSW 9 13 1018.4 - 0.0 - - 10 - - - -
02/03:00am 14.8 WSW 10 16 1018.1 R 0.0 Fine Clear 30 - - - -
02/02:30am 13.3 WSW 13 16 1017.9 - 0.0 - - 10 - - - -
02/02:00am 14.7 WSW 12 14 1017.7 - 0.0 - - 10 - - - -
02/01:30am 13.7 SW 12 15 1017.6 - 0.0 - - 10 - - - -
02/01:00am 16.5 SW 8 10 1017.6 - 0.0 - - 10 - - - -
02/12:30am 14.7 WNW 4 6 1017.1 - 0.0 - - 10 - - - -
02/12:00am 15.3 WNW 7 9 1016.5 R 0.0 Fine Clear 10 - - - -
 
Date/Time
EST
Temp

°C
Wind Pressure Rain
since 9am
mm
Weather Cloud Vis
km
Sea
Height
m
Swell
Dir
 
Speed
knots
Gust
knots
hPa Trend Height
m
Period
s
Dir
01/11:30pm 14.8 NNW 6 7 1016.1 - 0.0 - - 10 - - - -
01/11:00pm 17.2 W 7 11 1015.5 - 0.0 - - 10 - - - -
01/10:30pm 14.9 W 11 13 1015.3 - 0.0 - - 10 - - - -
01/10:00pm 17.7 WNW 7 8 1014.8 - 0.0 - - 10 - - - -
01/09:30pm 17.9 NW 6 8 1014.1 - 0.0 - - 10 - - - -
01/09:00pm 18.3 NNW 7 7 1013.9 R 0.0 Smoke Mostly clear 30 - - - -
01/08:30pm 18.0 N 7 9 1013.7 - 0.0 - - 10 - - - -
01/08:00pm 19.6 NW 6 8 1013.5 - 0.0 - Partly cloudy 10 - - - -
01/07:30pm 19.3 N 10 13 1013.0 - 0.0 - Partly cloudy 10 - - - -
01/07:00pm 19.9 N 11 15 1012.7 - 0.0 - Partly cloudy 10 - - - -
01/06:30pm 20.2 N 14 18 1012.4 - 0.0 - - 10 - - - -
01/06:00pm 20.3 N 14 18 1011.9 S 0.0 Smoke Mostly clear 30 - - - -
01/05:30pm 23.6 NW 7 9 1011.4 - 0.0 - - 10 - - - -
01/05:00pm 26.2 NW 10 15 1011.0 - 0.0 - Partly cloudy 10 - - - -
01/04:30pm 27.2 W 10 15 1011.0 - 0.0 - Partly cloudy 10 - - - -
01/04:00pm 27.3 NW 9 12 1011.0 - 0.0 - - 10 - - - -
01/03:30pm 27.5 NW 9 14 1010.9 - 0.0 - Partly cloudy 10 - - - -
01/03:00pm 27.9 NW 14 19 1011.0 F 0.0 Smoke Partly cloudy 30 - - - -
01/02:30pm 27.6 NW 16 22 1011.2 - 0.0 - Partly cloudy 10 - - - -
01/02:00pm 27.2 NW 15 23 1011.5 - 0.0 - Partly cloudy 10 - - - -
01/01:30pm 27.2 NNE 10 15 1012.0 - 0.0 - Mostly clear 10 - - - -
01/01:00pm 25.4 NNE 13 16 1012.5 - 0.0 - Mostly clear 10 - - - -
01/12:30pm 25.4 NNE 11 15 1013.0 - 0.0 - Mostly clear 10 - - - -
01/12:00pm 24.1 NNE 10 13 1013.6 F 0.0 Haze Mostly clear 30 - - - -
01/11:30am 23.3 NNE 9 12 1014.4 - 0.0 - Mostly clear 10 - - - -
01/11:00am 22.2 N 9 11 1015.1 - 0.0 - Mostly clear 10 - - - -
01/10:30am 21.6 N 10 12 1015.3 - 0.0 - - 10 - - - -
01/10:00am 20.1 N 11 11 1015.7 - 0.0 - - 10 - - - -
01/09:30am 20.2 N 7 9 1016.1 - 0.0 - - 10 - - - -
01/09:00am 19.0 N 8 10 1016.4 F 0.0 Haze Mostly clear 25 - - - -
01/08:30am 18.5 N 8 10 1016.3 - - - - 10 - - - -
01/08:00am 17.2 N 5 7 1016.3 - - - - 10 - - - -
01/07:30am 15.4 N 3 6 1016.3 - - - - 10 - - - -
01/07:00am 14.4 N 5 5 1016.2 - - - - 10 - - - -
01/06:30am 12.8 NNE 5 5 1016.0 - - Shallow fog Mostly clear 10 - - - -
01/06:00am 12.8 W 4 4 1016.1 F - Haze Clear 25 - - - -
01/05:30am 12.9 N 5 8 1016.0 - - Shallow fog - 10 - - - -
01/05:00am 13.1 NW 3 5 1015.8 - - Shallow fog - 10 - - - -
01/04:50am 13.4 W 4 4 1015.7 - - Shallow fog - 10 - - - -
01/04:30am 13.5 NNW 5 7 1015.6 - - - - 10 - - - -
01/04:00am 14.5 NNW 8 9 1015.4 - - - - 10 - - - -
01/03:30am 15.3 N 8 9 1015.5 - - - - 10 - - - -
01/03:00am 14.8 N 10 12 1015.6 F 0.0 Haze Clear 25 - - - -
01/02:30am 15.3 N 10 12 1015.9 - - - - 10 - - - -
01/02:00am 15.7 N 10 12 1016.3 - - - - 10 - - - -
01/01:30am 15.4 N 11 15 1016.4 - - - Partly cloudy 10 - - - -
01/01:00am 15.7 N 11 15 1016.6 - - - - 10 - - - -
01/12:30am 15.6 N 10 12 1016.9 - - - - 10 - - - -
01/12:00am 16.2 NNW 7 8 1017.2 F - Smoke Clear 25 - - - -
 
Date/Time
EST
Temp

°C
Wind Pressure Rain
since 9am
mm
Weather Cloud Vis
km
Sea
Height
m
Swell
Dir
 
Speed
knots
Gust
knots
hPa Trend Height
m
Period
s
Dir
31/11:30pm 16.3 NNW 8 8 1017.4 - - - - 10 - - - -
31/11:00pm 16.7 NNW 8 9 1017.4 - - - - 10 - - - -
31/10:30pm 17.3 N 12 15 1017.5 - - - - 10 - - - -
31/10:00pm 17.1 N 12 15 1017.4 - - - - 10 - - - -
31/09:30pm 17.3 N 10 19 1017.4 - - - - 10 - - - -
31/09:00pm 17.7 N 11 15 1017.5 R 0.0 Smoke Clear 25 - - - -
31/08:30pm 17.7 NNW 11 14 1017.4 - - - - 10 - - - -
31/08:00pm 17.7 N 12 15 1017.2 - - - - 10 - - - -
31/07:30pm 18.1 N 11 15 1016.7 - - - - 10 - - - -
31/07:00pm 17.5 N 13 17 1016.4 - - - - 10 - - - -
31/06:30pm 18.0 N 12 16 1016.2 - - - - 10 - - - -
31/06:00pm 17.9 N 13 16 1016.0 F - Smoke Clear 30 - - - -
31/05:30pm 18.8 NNE 13 16 1015.8 - - - - 10 - - - -
31/05:00pm 19.2 NNE 13 17 1015.8 - - - - 10 - - - -
31/04:30pm 19.8 NNE 15 19 1015.5 - - - - 10 - - - -
31/04:00pm 20.3 NNE 16 20 1015.4 - - - - 10 - - - -
31/03:30pm 21.0 NNE 16 20 1015.5 - - - Mostly clear 10 - - - -
31/03:00pm 21.2 NNE 15 19 1015.7 F 0.0 Smoke Mostly clear 30 - - - -
31/02:30pm 21.4 NNE 16 20 1015.8 - - - Mostly clear 10 - - - -
31/02:00pm 21.8 NNE 8 - 1016.2 - - - Mostly clear 10 - - - -
31/01:30pm 21.9 NNE 16 19 1016.7 - 0.0 - - 10 - - - -
31/01:00pm 22.2 NNE 15 18 1017.4 - 0.0 - - 10 - - - -
31/12:30pm 21.7 NNE 12 15 1018.2 - 0.0 - - 10 - - - -
31/12:00pm 21.5 NNE 9 10 1018.9 F 0.0 Smoke Clear 15 - - - -
31/11:30am 21.9 N 9 10 1019.6 - 0.0 - - 10 - - - -
31/11:00am 20.6 NNE 6 8 1020.3 - 0.0 - - 10 - - - -
31/10:30am 19.0 N 6 7 1021.0 - 0.0 - - 10 - - - -
31/10:00am 18.7 N 5 7 1021.4 - 0.0 - - 10 - - - -
31/09:30am 16.9 NW 3 4 1021.7 - 0.0 - - 10 - - - -
31/09:00am 15.4 WNW 3 5 1021.8 R 0.0 Smoke Clear 12 - - - -
31/08:30am 12.9 W 4 6 1021.6 - - - - 10 - - - -
31/08:00am 10.7 SW 4 5 1021.3 - - - - 10 - - - -
31/07:30am 8.9 SW 2 4 1021.0 - - - - 10 - - - -
31/07:00am 7.5 CALM 0 0 1020.7 - - - - 10 - - - -
31/06:30am 7.9 WSW 1 4 1020.4 - - - - 10 - - - -
31/06:00am 7.1 SW 5 6 1020.3 F 0.0 Smoke Clear 20 - - - -
31/05:30am 7.5 SSW 5 6 1020.2 - 0.0 - - 10 - - - -
31/05:00am 9.1 S 2 5 1020.0 - 0.0 - - 10 - - - -
31/04:30am 9.6 S 5 6 1019.9 - 0.0 - - 10 - - - -
31/04:00am 9.5 S 6 8 1019.9 - - - - 10 - - - -
31/03:30am 10.2 SSW 6 9 1019.9 - - - - 10 - - - -
31/03:00am 9.0 SSW 8 10 1019.8 R 0.0 Smoke Clear 9 - - - -
31/02:30am 8.6 SW 4 5 1019.8 - 0.0 - - 8 - - - -
31/02:11am 9.3 WSW 4 5 1019.8 - 0.0 Smoke - 5 - - - -
31/02:00am 9.5 WSW 3 4 1019.9 - 0.0 Smoke - 3 - - - -
31/01:30am 9.3 NW 4 5 1020.0 - 0.0 Smoke - 3 - - - -
31/01:16am 9.5 NW 4 5 1020.1 - - Smoke - 4 - - - -
31/01:00am 9.9 NW 4 5 1020.1 - - - - 8 - - - -
31/12:30am 9.8 NW 3 4 1020.2 - 0.0 - - 10 - - - -
31/12:00am 10.3 NW 5 7 1020.3 F 0.0 Shallow fog Clear 15 - - - -
 
Date/Time
EST
Temp

°C
Wind Pressure Rain
since 9am
mm
Weather Cloud Vis
km
Sea
Height
m
Swell
Dir
 
Speed
knots
Gust
knots
hPa Trend Height
m
Period
s
Dir
30/11:30pm 12.1 NNW 3 5 1020.5 - 0.0 Fog patches - 0.9 - - - -
30/11:15pm 12.1 WNW 1 4 1020.4 - - Fog patches - 9 - - - -
30/11:00pm 10.4 CALM 0 - 1020.4 - 0.0 Fog - 2 - - - -
30/10:30pm 12.6 W 3 5 1020.8 - 0.0 Fog - 2 - - - -
30/10:24pm 12.1 WSW 3 4 1020.8 - - Fog - 0.9 - - - -
30/10:10pm 13.8 W 3 5 1020.8 - 0.0 Fog - 2 - - - -
30/10:00pm 13.5 W 3 4 1020.8 - 0.0 Fog patches - 4 - - - -
30/09:30pm 14.9 NNW 4 7 1020.8 - 0.0 Fog patches - 6 - - - -
30/09:23pm 13.6 N 3 9 1020.8 - 0.0 Fog - 3 - - - -
30/09:09pm 14.9 CALM 0 - 1020.7 - 0.0 Fog patches - 10 - - - -
30/09:00pm 14.8 N 2 5 1020.6 R 0.0 Shallow fog Clear 17 - - - -
30/08:30pm 15.4 N 4 5 1020.6 - 0.0 Shallow fog - 10 - - - -
30/08:00pm 15.7 N 5 5 1020.5 - 0.0 Shallow fog - 10 - - - -
30/07:30pm 16.0 NNE 5 6 1020.3 - 0.0 Shallow fog - 10 - - - -
30/07:00pm 15.4 NNE 6 7 1020.2 - - - - 10 - - - -
30/06:30pm 16.0 NNE 6 7 1019.9 - 0.0 - - 10 - - - -
30/06:00pm 16.1 NNE 7 9 1019.5 R 0.0 Smoke Clear 25 - - - -
30/05:30pm 17.6 NE 7 8 1019.1 - 0.0 - - 10 - - - -
30/05:00pm 18.9 NE 7 8 1018.9 - 0.0 - - 10 - - - -
30/04:30pm 19.9 NE 9 13 1018.9 - 0.0 - - 10 - - - -
30/04:00pm 20.6 NE 9 12 1018.7 - 0.0 - - 10 - - - -
30/03:30pm 21.4 NE 10 13 1018.5 - 0.0 - - 10 - - - -
30/03:00pm 21.8 NE 10 13 1018.4 F 0.0 Smoke Clear 30 - - - -
30/02:30pm 22.3 NE 8 10 1018.6 - 0.0 - - 10 - - - -

Other Formats:

Comma delimited format used in spreadsheet applications
http://www.bom.gov.au/fwo/IDQ60701/IDQ60701.94578.axf

JavaScript Object Notation format (JSON) in row-major order
http://www.bom.gov.au/fwo/IDQ60701/IDQ60701.94578.json